createdAt,value
2023-02-12T00:04:01.869Z,99996.19
2023-02-12T00:08:04.159Z,99991.00
2023-02-12T00:12:06.536Z,99990.22
2023-02-12T00:16:11.187Z,99984.13
2023-02-12T00:20:13.380Z,99989.34
2023-02-12T00:24:15.416Z,99996.28
2023-02-12T00:28:17.456Z,99985.00
2023-02-12T00:32:19.633Z,99984.13
2023-02-12T00:36:24.535Z,99986.72
2023-02-12T00:40:26.549Z,99970.22
2023-02-12T00:44:28.564Z,99978.06
2023-02-12T00:48:31.680Z,99983.25
2023-02-12T00:52:33.705Z,99984.16
2023-02-12T00:56:35.719Z,99980.72
2023-02-12T01:00:38.373Z,99985.06
2023-02-12T01:04:40.446Z,99989.47
2023-02-12T01:08:42.500Z,99979.03
2023-02-12T01:12:44.903Z,99980.75
2023-02-12T01:16:46.957Z,99978.13
2023-02-12T01:20:48.934Z,99978.16
2023-02-12T01:24:51.076Z,99979.88
2023-02-12T01:29:01.304Z,99978.13
2023-02-12T01:33:03.567Z,99973.75
2023-02-12T01:37:05.568Z,99969.41
2023-02-12T01:41:14.859Z,99972.03
2023-02-12T01:45:16.828Z,99972.00
2023-02-12T01:49:41.076Z,99979.00
2023-02-12T01:53:50.908Z,99982.44
2023-02-12T01:57:53.284Z,99975.50
2023-02-12T02:01:55.367Z,99970.28
2023-02-12T02:06:09.757Z,99968.53
2023-02-12T02:10:12.982Z,99978.13
2023-02-12T02:14:33.402Z,99979.00
2023-02-12T02:19:17.899Z,99971.16
2023-02-12T02:23:34.507Z,99970.31
2023-02-12T02:27:49.252Z,99967.72
2023-02-12T02:32:08.218Z,99961.66
2023-02-12T02:36:27.811Z,99960.81
2023-02-12T02:40:40.139Z,99960.81
2023-02-12T02:44:59.315Z,99965.16
2023-02-12T02:49:14.525Z,99966.84
2023-02-12T02:53:27.490Z,99959.91
2023-02-12T02:57:36.246Z,99964.19
2023-02-12T03:01:50.110Z,99965.84
2023-02-12T03:05:58.037Z,99958.94
2023-02-12T03:10:12.120Z,99961.50
2023-02-12T03:14:20.440Z,99964.09
2023-02-12T03:18:27.569Z,99964.16
2023-02-12T03:22:36.221Z,99958.06
2023-02-12T03:26:47.523Z,99966.78
2023-02-12T03:31:09.187Z,99965.91
2023-02-12T03:35:20.808Z,99965.94
2023-02-12T03:39:49.303Z,99972.06
2023-02-12T03:43:56.946Z,99976.38
2023-02-12T03:48:20.218Z,99976.38
2023-02-12T03:52:22.697Z,99978.16
2023-02-12T03:56:52.081Z,99984.22
2023-02-12T04:00:54.743Z,99986.84
2023-02-12T04:04:56.777Z,99982.50
2023-02-12T04:09:03.882Z,99992.94
2023-02-12T04:13:21.315Z,99987.72
2023-02-12T04:18:04.842Z,99991.22
2023-02-12T04:22:36.739Z,100001.69
2023-02-12T04:26:55.576Z,100000.81
2023-02-12T04:31:04.068Z,99999.97
2023-02-12T04:35:26.808Z,100004.28
2023-02-12T04:39:32.044Z,100005.16
2023-02-12T04:43:36.950Z,100006.91
2023-02-12T04:47:39.306Z,100001.63
2023-02-12T04:51:41.374Z,100006.84
2023-02-12T04:55:43.472Z,100002.53
2023-02-12T04:59:45.543Z,100009.50
2023-02-12T05:03:47.595Z,100003.44
2023-02-12T05:07:49.949Z,100003.41
2023-02-12T05:11:51.988Z,99997.31
2023-02-12T05:15:54.209Z,100002.53
2023-02-12T05:19:56.454Z,100003.44
2023-02-12T05:23:58.424Z,100006.84
2023-02-12T05:28:00.452Z,100005.03
2023-02-12T05:32:03.033Z,100003.25
2023-02-12T05:36:12.045Z,100005.78
2023-02-12T05:40:14.618Z,100012.81
2023-02-12T05:44:16.710Z,100005.03
2023-02-12T05:48:18.736Z,100006.78
2023-02-12T05:52:20.737Z,100016.38
2023-02-12T05:56:25.583Z,100015.50
2023-02-12T06:00:27.641Z,100021.59
2023-02-12T06:04:29.666Z,100020.78
2023-02-12T06:08:31.871Z,100021.63
2023-02-12T06:12:33.874Z,100021.59
2023-02-12T06:16:36.151Z,100020.72
2023-02-12T06:20:41.346Z,100025.00
2023-02-12T06:24:43.316Z,100029.31
2023-02-12T06:28:45.420Z,100032.72
2023-02-12T06:32:50.200Z,100025.88
2023-02-12T06:36:52.224Z,100039.78
2023-02-12T06:40:54.221Z,100045.06
2023-02-12T06:44:56.213Z,100037.25
2023-02-12T06:49:00.270Z,100041.59
2023-02-12T06:53:02.366Z,100049.38
2023-02-12T06:57:04.386Z,100045.94
2023-02-12T07:01:13.681Z,100050.34
2023-02-12T07:05:15.933Z,100047.78
2023-02-12T07:09:17.980Z,100053.84
2023-02-12T07:13:19.982Z,100060.81
2023-02-12T07:17:21.968Z,100062.53
2023-02-12T07:21:23.982Z,100070.34
2023-02-12T07:25:25.958Z,100071.22
2023-02-12T07:29:27.935Z,100069.53
2023-02-12T07:33:29.929Z,100075.63
2023-02-12T07:37:31.966Z,100083.50
2023-02-12T07:41:35.961Z,100081.75
2023-02-12T07:45:37.994Z,100083.53
2023-02-12T07:49:40.010Z,100087.00
2023-02-12T07:53:42.361Z,100086.09
2023-02-12T07:57:44.395Z,100087.84
2023-02-12T08:01:48.944Z,100084.31
2023-02-12T08:05:51.022Z,100097.31
2023-02-12T08:09:53.431Z,100093.84
2023-02-12T08:13:58.131Z,100097.41
2023-02-12T08:18:01.517Z,100102.69
2023-02-12T08:22:03.571Z,100107.91
2023-02-12T08:26:32.894Z,100110.59
2023-02-12T08:30:34.893Z,100112.47
2023-02-12T08:34:36.901Z,100104.69
2023-02-12T08:38:39.682Z,100101.19
2023-02-12T08:42:41.919Z,100107.28
2023-02-12T08:46:47.130Z,100106.41
2023-02-12T08:50:49.170Z,100112.50
2023-02-12T08:54:51.239Z,100110.78
2023-02-12T08:58:53.208Z,100109.03
2023-02-12T09:02:55.191Z,100107.28
2023-02-12T09:06:57.577Z,100109.00
2023-02-12T09:10:59.574Z,100116.84
2023-02-12T09:15:01.588Z,100111.59
2023-02-12T09:19:04.541Z,100113.34
2023-02-12T09:23:07.905Z,100108.97
2023-02-12T09:27:10.025Z,100108.06
2023-02-12T09:31:15.420Z,100108.91
2023-02-12T09:35:18.497Z,100111.41
2023-02-12T09:39:20.480Z,100101.81
2023-02-12T09:43:40.140Z,100113.09
2023-02-12T09:48:02.962Z,100106.94
2023-02-12T09:52:10.639Z,100121.72
2023-02-12T09:56:14.884Z,100113.66
2023-02-12T10:00:31.075Z,100105.63
2023-02-12T10:04:33.240Z,100108.28
2023-02-12T10:09:00.479Z,100115.28
2023-02-12T10:13:10.753Z,100118.81
2023-02-12T10:17:42.242Z,100117.94
2023-02-12T10:21:53.425Z,100116.22
2023-02-12T10:26:02.344Z,100117.13
2023-02-12T10:30:16.769Z,100114.56
2023-02-12T10:34:22.473Z,100118.91
2023-02-12T10:38:30.246Z,100121.53
2023-02-12T10:42:41.946Z,100113.66
2023-02-12T10:46:44.285Z,100106.59
2023-02-12T10:50:58.868Z,100102.34
2023-02-12T10:55:01.351Z,100106.94
2023-02-12T10:59:03.375Z,100096.41
2023-02-12T11:03:08.401Z,100091.94
2023-02-12T11:07:10.473Z,100090.13
2023-02-12T11:11:33.087Z,100093.69
2023-02-12T11:15:46.000Z,100083.31
2023-02-12T11:20:02.901Z,100081.53
2023-02-12T11:24:30.150Z,100077.94
2023-02-12T11:28:35.096Z,100062.19
2023-02-12T11:32:37.490Z,100066.41
2023-02-12T11:36:53.678Z,100074.41
2023-02-12T11:41:00.004Z,100065.78
2023-02-12T11:45:02.747Z,100057.88
2023-02-12T11:49:06.138Z,100049.03
2023-02-12T11:53:09.803Z,100058.69
2023-02-12T11:57:50.936Z,100048.34
2023-02-12T12:01:56.005Z,100045.78
2023-02-12T12:06:08.141Z,100054.44
2023-02-12T12:10:39.234Z,100051.78
2023-02-12T12:15:23.706Z,100044.72
2023-02-12T12:19:53.213Z,100042.88
2023-02-12T12:24:00.750Z,100041.34
2023-02-12T12:28:15.141Z,100038.91
2023-02-12T12:32:21.217Z,100036.25
2023-02-12T12:36:58.350Z,100036.25
2023-02-12T12:41:26.576Z,100038.00
2023-02-12T12:45:40.616Z,100030.06
2023-02-12T12:49:54.226Z,100029.81
2023-02-12T12:53:59.172Z,100027.09
2023-02-12T12:58:15.863Z,100028.84
2023-02-12T13:02:42.999Z,100013.91
2023-02-12T13:07:03.300Z,100013.81
2023-02-12T13:11:08.127Z,100010.31
2023-02-12T13:15:28.949Z,99998.25
2023-02-12T13:19:40.321Z,99994.84
2023-02-12T13:24:06.655Z,99992.19
2023-02-12T13:28:22.593Z,99990.53
2023-02-12T13:32:37.588Z,100000.16
2023-02-12T13:36:41.722Z,99995.97
2023-02-12T13:40:43.919Z,99997.84
2023-02-12T13:44:56.449Z,100002.38
2023-02-12T13:49:29.680Z,99999.81
2023-02-12T13:53:45.899Z,99995.50
2023-02-12T13:58:26.561Z,99999.09
2023-02-12T14:02:43.106Z,99993.06
2023-02-12T14:06:58.727Z,99987.03
2023-02-12T14:11:17.839Z,99991.41
2023-02-12T14:15:32.415Z,99987.94
2023-02-12T14:19:50.762Z,99994.03
2023-02-12T14:23:53.925Z,99989.72
2023-02-12T14:28:12.822Z,99991.44
2023-02-12T14:33:09.703Z,99990.56
2023-02-12T14:37:32.057Z,99988.81
2023-02-12T14:41:43.132Z,99981.00
2023-02-12T14:45:45.210Z,99986.22
2023-02-12T14:49:52.035Z,99985.31
2023-02-12T14:53:56.081Z,99987.06
2023-02-12T14:58:01.867Z,99997.56
2023-02-12T15:02:06.267Z,99987.94
2023-02-12T15:06:21.970Z,99995.81
2023-02-12T15:10:37.184Z,99992.31
2023-02-12T15:14:51.433Z,99986.19
2023-02-12T15:19:31.238Z,99986.22
2023-02-12T15:23:41.663Z,99990.59
2023-02-12T15:27:48.705Z,99981.03
2023-02-12T15:32:02.839Z,99984.50
2023-02-12T15:36:07.497Z,99982.78
2023-02-12T15:40:15.498Z,99984.53
2023-02-12T15:44:28.398Z,99974.06
2023-02-12T15:48:33.583Z,99973.19
2023-02-12T15:52:39.403Z,99981.91
2023-02-12T15:56:41.778Z,99982.78
2023-02-12T16:00:48.875Z,99974.06
2023-02-12T16:04:51.067Z,99981.03
2023-02-12T16:09:01.474Z,99970.56
2023-02-12T16:13:04.164Z,99974.06
2023-02-12T16:17:21.750Z,99968.84
2023-02-12T16:21:23.727Z,99980.16
2023-02-12T16:25:27.753Z,99981.00
2023-02-12T16:29:32.258Z,99976.66
2023-02-12T16:33:48.689Z,99986.25
2023-02-12T16:37:52.870Z,99978.41
2023-02-12T16:41:56.729Z,99987.97
2023-02-12T16:46:05.452Z,99993.19
2023-02-12T16:50:15.242Z,99988.84
2023-02-12T16:54:31.304Z,99996.66
2023-02-12T16:58:33.530Z,99992.34
2023-02-12T17:02:38.511Z,100004.53
2023-02-12T17:06:40.504Z,100003.66
2023-02-12T17:10:44.630Z,100003.66
2023-02-12T17:14:47.263Z,100000.19
2023-02-12T17:18:49.306Z,100014.97
2023-02-12T17:22:54.053Z,100019.28
2023-02-12T17:26:56.384Z,100022.72
2023-02-12T17:30:58.898Z,100017.50
2023-02-12T17:35:01.068Z,100013.16
2023-02-12T17:39:05.215Z,100022.72
2023-02-12T17:43:07.593Z,100021.84
2023-02-12T17:47:09.758Z,100031.41
2023-02-12T17:51:12.319Z,100030.53
2023-02-12T17:55:15.085Z,100030.53
2023-02-12T17:59:17.402Z,100027.91
2023-02-12T18:03:19.425Z,100025.28
2023-02-12T18:07:21.431Z,100034.88
2023-02-12T18:11:23.989Z,100028.75
2023-02-12T18:15:26.007Z,100027.88
2023-02-12T18:19:28.847Z,100029.63
2023-02-12T18:23:30.992Z,100032.22
2023-02-12T18:27:33.026Z,100033.09
2023-02-12T18:31:35.383Z,100033.97
2023-02-12T18:35:37.590Z,100025.31
2023-02-12T18:39:40.029Z,100029.63
2023-02-12T18:43:43.995Z,100026.19
2023-02-12T18:47:46.165Z,100027.94
2023-02-12T18:51:48.161Z,100029.66
2023-02-12T18:55:50.628Z,100035.75
2023-02-12T18:59:52.689Z,100030.56
2023-02-12T19:03:57.390Z,100032.34
2023-02-12T19:08:00.097Z,100026.22
2023-02-12T19:12:02.415Z,100021.84
2023-02-12T19:16:15.340Z,100013.13
2023-02-12T19:20:17.640Z,100017.44
2023-02-12T19:24:19.710Z,100010.47
2023-02-12T19:28:21.748Z,100013.03
2023-02-12T19:32:23.774Z,100013.03
2023-02-12T19:36:27.528Z,100023.50
2023-02-12T19:40:29.526Z,100031.31
2023-02-12T19:44:31.652Z,100019.94
2023-02-12T19:48:34.073Z,100022.59
2023-02-12T19:52:36.924Z,100019.94
2023-02-12T19:56:39.332Z,100016.44
2023-02-12T20:00:41.355Z,100018.19
2023-02-12T20:04:43.579Z,100013.81
2023-02-12T20:08:45.803Z,100022.50
2023-02-12T20:12:47.815Z,100016.38
2023-02-12T20:16:53.330Z,100017.25
2023-02-12T20:20:55.672Z,100014.63
2023-02-12T20:24:58.051Z,100019.00
2023-02-12T20:29:03.299Z,100021.63
2023-02-12T20:33:06.833Z,100024.25
2023-02-12T20:37:08.881Z,100019.91
2023-02-12T20:41:11.427Z,100015.47
2023-02-12T20:45:13.406Z,100022.41
2023-02-12T20:49:17.412Z,100029.31
2023-02-12T20:53:19.401Z,100022.34
2023-02-12T20:57:21.513Z,100031.91
2023-02-12T21:01:26.544Z,100033.69
2023-02-12T21:05:28.899Z,100032.81
2023-02-12T21:09:31.024Z,100037.16
2023-02-12T21:13:33.283Z,100038.03
2023-02-12T21:17:35.792Z,100036.28
2023-02-12T21:21:39.528Z,100047.56
2023-02-12T21:25:41.532Z,100038.03
2023-02-12T21:29:43.544Z,100041.50
2023-02-12T21:33:47.940Z,100046.72
2023-02-12T21:37:49.950Z,100047.59
2023-02-12T21:41:54.521Z,100054.50
2023-02-12T21:45:56.618Z,100057.97
2023-02-12T21:49:58.754Z,100052.75
2023-02-12T21:54:03.386Z,100057.09
2023-02-12T21:58:05.399Z,100055.41
2023-02-12T22:02:09.610Z,100054.53
2023-02-12T22:06:13.626Z,100054.59
2023-02-12T22:10:15.897Z,100047.63
2023-02-12T22:14:18.406Z,100044.13
2023-02-12T22:18:20.414Z,100050.22
2023-02-12T22:22:23.740Z,100050.22
2023-02-12T22:26:27.848Z,100039.75
2023-02-12T22:30:29.896Z,100051.91
2023-02-12T22:34:32.028Z,100040.63
2023-02-12T22:38:35.818Z,100046.81
2023-02-12T22:42:37.932Z,100047.75
2023-02-12T22:46:41.694Z,100048.69
2023-02-12T22:50:43.722Z,100045.25
2023-02-12T22:54:45.757Z,100047.91
2023-02-12T22:58:47.997Z,100056.66
2023-02-12T23:02:50.006Z,100055.78
2023-02-12T23:06:52.024Z,100058.41
2023-02-12T23:10:54.051Z,100053.19
2023-02-12T23:14:56.083Z,100053.25
2023-02-12T23:19:00.381Z,100055.78
2023-02-12T23:23:02.442Z,100055.78
2023-02-12T23:27:04.483Z,100052.31
2023-02-12T23:31:06.746Z,100050.56
2023-02-12T23:35:08.840Z,100050.56
2023-02-12T23:39:12.420Z,100049.72
2023-02-12T23:43:14.883Z,100048.81
2023-02-12T23:47:16.906Z,100047.09
2023-02-12T23:51:18.920Z,100045.34
2023-02-12T23:55:21.551Z,100038.38
2023-02-12T23:59:25.427Z,100042.69
